Time;durP1;ratioP1;P1;durP2;ratioP2;P2;SDS_P1;SDS_P2;PMS_P1;PMS_P2;Temp;Humidity;BMP_temperature;BMP_pressure;BME280_temperature;BME280_humidity;BME280_pressure;Samples;Min_cycle;Max_cycle;Signal;HPM_P1;HPM_P2
2021/03/26 00:02:17;;;;;;;5.80;1.70;;;8.80;99.90;;;;;;5004588;28;20184;-67
2021/03/26 00:04:43;;;;;;;7.10;1.70;;;8.80;99.90;;;;;;5007303;28;20177;-66
2021/03/26 00:07:10;;;;;;;8.40;1.33;;;8.80;99.90;;;;;;5002778;28;20280;-67
2021/03/26 00:09:38;;;;;;;4.40;1.80;;;8.80;99.90;;;;;;5005409;28;20242;-66
2021/03/26 00:12:13;;;;;;;3.10;1.60;;;8.80;99.90;;;;;;5006086;28;20185;-67
2021/03/26 00:14:41;;;;;;;3.07;1.50;;;8.80;99.90;;;;;;5005867;28;20533;-68
2021/03/26 00:17:07;;;;;;;5.50;1.80;;;8.80;99.90;;;;;;5004511;28;20216;-69
2021/03/26 00:19:34;;;;;;;5.60;1.80;;;8.70;99.90;;;;;;4987313;28;20212;-68
2021/03/26 00:22:00;;;;;;;11.63;2.13;;;8.80;99.90;;;;;;5005511;28;20511;-67
2021/03/26 00:24:27;;;;;;;7.70;1.40;;;8.70;99.90;;;;;;5003200;28;20646;-68
2021/03/26 00:26:53;;;;;;;8.77;2.00;;;8.60;99.90;;;;;;5005906;28;20212;-69
2021/03/26 00:29:22;;;;;;;9.27;2.03;;;8.60;99.90;;;;;;5005928;28;20212;-70
2021/03/26 00:31:50;;;;;;;5.50;1.70;;;8.60;99.90;;;;;;5004118;28;20446;-69
2021/03/26 00:34:17;;;;;;;5.23;1.80;;;8.60;99.90;;;;;;5003408;28;20215;-68
2021/03/26 00:36:44;;;;;;;2.37;1.50;;;8.40;99.90;;;;;;5004138;28;20631;-69
2021/03/26 00:39:10;;;;;;;7.97;1.90;;;8.30;99.90;;;;;;4999072;28;20760;-68
2021/03/26 00:41:37;;;;;;;6.27;1.50;;;8.20;99.90;;;;;;4997273;28;20311;-69
2021/03/26 00:44:04;;;;;;;4.60;1.60;;;8.20;99.90;;;;;;5004559;28;20442;-68
2021/03/26 00:46:37;;;;;;;8.57;1.80;;;8.30;99.90;;;;;;5010848;28;20202;-69
2021/03/26 00:49:04;;;;;;;2.90;1.50;;;8.20;99.90;;;;;;5000473;28;20651;-69
2021/03/26 00:51:30;;;;;;;3.23;1.90;;;8.30;99.90;;;;;;5003264;28;20193;-68
2021/03/26 00:53:57;;;;;;;6.03;1.90;;;8.30;99.90;;;;;;4991559;28;20201;-67
2021/03/26 00:56:23;;;;;;;8.63;1.90;;;8.50;99.90;;;;;;4999201;28;20205;-67
2021/03/26 00:58:49;;;;;;;7.87;1.70;;;8.60;99.90;;;;;;5021753;28;20185;-67
2021/03/26 01:01:16;;;;;;;6.33;1.80;;;8.40;99.90;;;;;;5003850;28;20181;-67
2021/03/26 01:03:42;;;;;;;7.33;2.00;;;8.40;99.90;;;;;;4990868;28;20198;-68
2021/03/26 01:06:09;;;;;;;9.10;2.00;;;8.60;99.90;;;;;;5001584;28;20185;-68
2021/03/26 01:08:37;;;;;;;5.77;1.70;;;8.60;99.90;;;;;;4994470;28;20189;-68
2021/03/26 01:11:22;;;;;;;10.43;2.10;;;8.60;99.90;;;;;;5006519;28;20181;-68
2021/03/26 01:13:49;;;;;;;4.67;2.00;;;8.70;99.90;;;;;;5004024;28;20193;-70
2021/03/26 01:16:19;;;;;;;4.87;2.00;;;8.70;99.90;;;;;;5005871;28;20205;-69
2021/03/26 01:18:46;;;;;;;6.63;1.97;;;8.60;99.90;;;;;;5002425;28;20275;-69
2021/03/26 01:21:19;;;;;;;10.00;2.10;;;8.60;99.90;;;;;;5004208;28;20191;-68
2021/03/26 01:23:46;;;;;;;9.80;1.80;;;8.60;99.90;;;;;;5003391;28;20197;-67
2021/03/26 01:26:12;;;;;;;10.17;1.87;;;8.60;99.90;;;;;;5006697;28;20191;-67
2021/03/26 01:28:39;;;;;;;5.33;1.93;;;8.70;99.90;;;;;;5009164;28;20201;-68
2021/03/26 01:31:06;;;;;;;6.13;2.07;;;8.70;99.90;;;;;;5001214;28;20199;-69
2021/03/26 01:33:33;;;;;;;12.07;2.10;;;8.60;99.90;;;;;;4995271;28;20204;-68
2021/03/26 01:35:59;;;;;;;8.23;2.47;;;8.60;99.90;;;;;;5002164;28;20239;-71
2021/03/26 01:38:26;;;;;;;9.03;1.97;;;8.50;99.90;;;;;;5002218;28;20545;-71
2021/03/26 01:41:01;;;;;;;9.20;2.00;;;8.60;99.90;;;;;;5003771;28;20193;-65
2021/03/26 01:43:41;;;;;;;5.73;1.80;;;8.50;99.90;;;;;;5002731;28;20218;-67
2021/03/26 01:46:13;;;;;;;7.73;2.57;;;8.50;99.90;;;;;;5004924;28;20227;-68
2021/03/26 01:48:49;;;;;;;6.00;1.67;;;8.50;99.90;;;;;;5004523;28;20177;-67
2021/03/26 01:51:26;;;;;;;4.93;1.80;;;8.50;99.90;;;;;;5004803;28;21093;-69
2021/03/26 01:53:53;;;;;;;4.93;1.63;;;8.50;99.90;;;;;;5013264;28;20581;-67
2021/03/26 01:56:19;;;;;;;5.33;1.83;;;8.50;99.90;;;;;;5003193;28;20234;-66
2021/03/26 01:58:46;;;;;;;8.10;1.70;;;8.50;99.90;;;;;;5003913;28;20652;-68
2021/03/26 02:01:19;;;;;;;7.23;1.90;;;8.50;99.90;;;;;;5002891;28;20181;-67
2021/03/26 02:03:54;;;;;;;9.73;1.70;;;8.50;99.90;;;;;;5003868;28;20192;-67
2021/03/26 02:06:35;;;;;;;5.63;1.60;;;8.50;99.90;;;;;;5001400;28;20185;-68
2021/03/26 02:09:17;;;;;;;3.37;1.43;;;8.50;99.90;;;;;;4999763;28;20196;-67
2021/03/26 02:12:09;;;;;;;8.40;1.57;;;8.50;99.90;;;;;;4999248;28;20267;-67
2021/03/26 02:14:42;;;;;;;4.50;1.30;;;8.40;99.90;;;;;;4999229;28;20192;-68
2021/03/26 02:17:15;;;;;;;9.60;1.33;;;8.40;99.90;;;;;;4999090;28;20264;-70
2021/03/26 02:19:54;;;;;;;4.03;1.33;;;8.40;99.90;;;;;;4993814;28;20242;-69
2021/03/26 02:22:25;;;;;;;4.37;1.50;;;8.40;99.90;;;;;;4999264;28;20192;-68
2021/03/26 02:24:53;;;;;;;7.20;1.20;;;8.40;99.90;;;;;;5003933;28;20181;-67
2021/03/26 02:27:35;;;;;;;4.33;1.70;;;8.40;99.90;;;;;;5002596;28;20394;-69
2021/03/26 02:30:12;;;;;;;9.37;2.00;;;8.40;99.90;;;;;;4998179;28;20208;-67
2021/03/26 02:32:41;;;;;;;5.47;1.53;;;8.40;99.90;;;;;;5003689;28;20392;-67
2021/03/26 02:35:27;;;;;;;9.03;2.00;;;8.40;99.90;;;;;;5003380;28;20624;-68
2021/03/26 02:38:14;;;;;;;9.83;1.53;;;8.40;99.90;;;;;;4999811;28;20220;-67
2021/03/26 02:41:02;;;;;;;8.07;1.80;;;8.30;99.90;;;;;;4999973;28;20549;-67
2021/03/26 02:44:07;;;;;;;5.37;1.80;;;8.40;99.90;;;;;;5007837;28;20712;-67
2021/03/26 02:46:52;;;;;;;9.13;1.60;;;8.30;99.90;;;;;;5002675;28;20246;-66
2021/03/26 02:49:59;;;;;;;11.40;2.07;;;8.30;99.90;;;;;;5007374;28;20192;-66
2021/03/26 02:52:39;;;;;;;4.53;1.53;;;8.30;99.90;;;;;;5008786;28;20193;-67
2021/03/26 02:55:16;;;;;;;5.73;1.50;;;8.20;99.90;;;;;;5023310;28;20853;-67
2021/03/26 02:58:04;;;;;;;3.57;1.60;;;8.20;99.90;;;;;;5005436;28;20235;-67
2021/03/26 03:00:43;;;;;;;5.60;1.63;;;8.30;99.90;;;;;;5022516;28;20206;-69
2021/03/26 03:03:13;;;;;;;4.40;1.70;;;8.40;99.90;;;;;;5014915;28;20280;-66
2021/03/26 03:05:47;;;;;;;6.00;1.80;;;8.20;99.90;;;;;;5003844;28;20243;-66
2021/03/26 03:08:20;;;;;;;8.17;1.50;;;8.30;99.90;;;;;;5005683;28;20275;-67
2021/03/26 03:10:58;;;;;;;6.43;1.83;;;8.40;99.90;;;;;;5007714;28;20246;-66
2021/03/26 03:13:36;;;;;;;5.43;1.80;;;8.40;99.90;;;;;;5005176;28;20199;-67
2021/03/26 03:16:16;;;;;;;8.80;1.97;;;8.40;99.90;;;;;;5007614;28;20193;-66
2021/03/26 03:19:05;;;;;;;7.10;1.90;;;8.50;99.90;;;;;;5021622;28;20215;-65
2021/03/26 03:22:19;;;;;;;6.43;2.03;;;8.40;99.90;;;;;;5005907;28;20239;-69
2021/03/26 03:24:48;;;;;;;5.77;2.17;;;8.50;99.90;;;;;;4968471;28;20186;-67
2021/03/26 03:27:38;;;;;;;6.57;1.57;;;8.40;99.90;;;;;;4967770;28;20542;-68
2021/03/26 03:30:18;;;;;;;4.17;1.60;;;8.30;99.90;;;;;;4999994;28;20243;-68
2021/03/26 03:33:15;;;;;;;3.67;1.83;;;8.30;99.90;;;;;;5004357;28;20199;-67
2021/03/26 03:36:01;;;;;;;7.80;2.13;;;8.30;99.90;;;;;;5002828;28;20272;-66
2021/03/26 03:38:42;;;;;;;7.47;2.00;;;8.30;99.90;;;;;;5022165;28;20193;-68
2021/03/26 03:41:19;;;;;;;7.77;2.00;;;8.30;99.90;;;;;;5004366;28;20192;-68
2021/03/26 03:44:23;;;;;;;4.20;1.80;;;8.20;99.90;;;;;;5000564;28;20185;-66
2021/03/26 03:46:52;;;;;;;6.83;2.07;;;8.20;99.90;;;;;;5006104;28;20436;-67
2021/03/26 03:49:58;;;;;;;6.13;1.93;;;8.20;99.90;;;;;;5005576;28;20537;-68
2021/03/26 03:52:33;;;;;;;4.80;1.90;;;8.20;99.90;;;;;;5003939;28;20245;-69
2021/03/26 03:55:09;;;;;;;8.93;1.90;;;8.10;99.90;;;;;;5003933;28;20836;-67
2021/03/26 03:57:50;;;;;;;5.43;1.70;;;8.20;99.90;;;;;;4988198;28;20227;-67
2021/03/26 04:00:28;;;;;;;4.13;1.90;;;8.10;99.90;;;;;;5000029;28;20185;-69
2021/03/26 04:03:26;;;;;;;7.57;1.97;;;8.10;99.90;;;;;;5003851;28;20243;-67
2021/03/26 04:05:57;;;;;;;8.23;1.97;;;8.20;99.90;;;;;;5002717;28;20504;-66
2021/03/26 04:08:43;;;;;;;8.03;1.60;;;8.20;99.90;;;;;;5007507;28;20540;-68
2021/03/26 04:11:41;;;;;;;3.10;1.80;;;8.20;99.90;;;;;;5004766;28;20455;-68
2021/03/26 04:14:13;;;;;;;4.13;1.70;;;8.20;99.90;;;;;;5006079;28;20172;-66
2021/03/26 04:16:44;;;;;;;3.93;1.80;;;8.20;99.90;;;;;;5003170;28;20217;-66
2021/03/26 04:19:24;;;;;;;5.87;1.83;;;8.20;99.90;;;;;;5003204;28;20188;-65
2021/03/26 04:21:59;;;;;;;2.53;1.67;;;8.20;99.90;;;;;;5004395;28;20189;-67
2021/03/26 04:25:06;;;;;;;8.83;2.23;;;8.20;99.90;;;;;;5020308;28;20181;-68
2021/03/26 04:27:44;;;;;;;5.40;1.80;;;8.30;99.90;;;;;;4998425;28;20193;-68
2021/03/26 04:30:29;;;;;;;8.63;2.13;;;8.30;99.90;;;;;;5004986;28;20180;-68
2021/03/26 04:32:57;;;;;;;5.57;2.10;;;8.20;99.90;;;;;;5020419;28;20196;-67
2021/03/26 04:35:27;;;;;;;5.63;1.67;;;8.20;99.90;;;;;;5006034;28;20187;-67
2021/03/26 04:38:02;;;;;;;5.73;1.70;;;8.20;99.90;;;;;;5003092;28;20201;-68
2021/03/26 04:40:47;;;;;;;5.13;1.60;;;8.20;99.90;;;;;;5018199;28;20310;-67
2021/03/26 04:43:25;;;;;;;5.33;2.23;;;8.20;99.90;;;;;;4983688;28;20188;-68
2021/03/26 04:46:32;;;;;;;6.43;2.30;;;8.20;99.90;;;;;;5002186;28;20305;-69
2021/03/26 04:49:26;;;;;;;6.43;1.70;;;8.20;99.90;;;;;;5002595;28;20184;-68
2021/03/26 04:52:07;;;;;;;14.03;2.30;;;8.20;99.90;;;;;;5000259;28;20193;-67
2021/03/26 04:55:20;;;;;;;8.13;2.33;;;8.20;99.90;;;;;;5002611;28;20236;-68
2021/03/26 04:58:07;;;;;;;12.07;2.20;;;8.20;99.90;;;;;;4999970;28;20236;-68
2021/03/26 05:00:47;;;;;;;6.97;2.00;;;8.20;99.90;;;;;;5016363;28;20405;-66
2021/03/26 05:03:20;;;;;;;4.13;1.50;;;8.20;99.90;;;;;;5001367;28;20693;-67
2021/03/26 05:05:58;;;;;;;8.43;2.03;;;8.40;99.90;;;;;;4997428;28;20242;-68
2021/03/26 05:08:26;;;;;;;5.73;1.60;;;8.50;99.90;;;;;;4995623;28;20185;-66
2021/03/26 05:10:58;;;;;;;8.00;2.13;;;8.60;99.90;;;;;;5001175;28;20219;-66
2021/03/26 05:13:44;;;;;;;3.47;1.50;;;8.60;99.90;;;;;;4986314;28;20544;-66
2021/03/26 05:16:42;;;;;;;8.23;2.37;;;8.70;99.90;;;;;;5002180;28;20248;-66
2021/03/26 05:19:36;;;;;;;3.47;1.70;;;8.70;99.90;;;;;;4986940;28;20213;-66
2021/03/26 05:22:39;;;;;;;3.80;1.37;;;8.70;99.90;;;;;;4999252;28;20196;-67
2021/03/26 05:25:36;;;;;;;7.37;1.87;;;8.80;99.90;;;;;;5018652;28;20190;-67
2021/03/26 05:28:10;;;;;;;3.93;1.63;;;8.80;99.90;;;;;;4984106;28;20620;-65
2021/03/26 05:30:42;;;;;;;3.93;1.50;;;8.80;99.90;;;;;;5005690;28;20192;-68
2021/03/26 05:33:26;;;;;;;2.40;1.60;;;8.80;99.90;;;;;;5001132;28;20200;-68
2021/03/26 05:36:25;;;;;;;7.87;1.97;;;8.70;99.90;;;;;;5003386;28;20268;-68
2021/03/26 05:39:06;;;;;;;6.60;2.10;;;8.60;99.90;;;;;;5002930;28;20197;-69
2021/03/26 05:42:15;;;;;;;7.00;2.23;;;8.60;99.90;;;;;;5002167;28;20208;-68
2021/03/26 05:45:26;;;;;;;6.13;1.80;;;8.60;99.90;;;;;;5002673;28;20200;-68
2021/03/26 05:48:04;;;;;;;6.43;2.40;;;8.40;99.90;;;;;;5004348;28;20849;-67
2021/03/26 05:51:27;;;;;;;12.17;2.80;;;8.40;99.90;;;;;;5002475;28;20250;-68
2021/03/26 05:54:35;;;;;;;5.87;1.90;;;8.30;99.90;;;;;;4990031;28;20553;-69
2021/03/26 05:57:19;;;;;;;6.93;2.30;;;8.30;99.90;;;;;;5009602;28;20497;-68
2021/03/26 06:00:13;;;;;;;12.30;2.60;;;8.10;99.90;;;;;;5004485;28;20184;-68
2021/03/26 06:03:20;;;;;;;6.50;1.87;;;8.00;99.90;;;;;;4997197;28;20181;-67
2021/03/26 06:06:35;;;;;;;15.03;2.70;;;8.00;99.90;;;;;;5018257;28;20200;-67
2021/03/26 06:09:37;;;;;;;6.13;2.40;;;8.00;99.90;;;;;;5002810;28;20208;-66
2021/03/26 06:12:35;;;;;;;7.93;2.07;;;8.00;99.90;;;;;;4989654;28;20203;-67
2021/03/26 06:15:58;;;;;;;3.43;2.00;;;8.10;99.90;;;;;;4999223;28;20692;-66
2021/03/26 06:18:47;;;;;;;6.73;2.20;;;8.00;99.90;;;;;;5011700;28;20213;-67
2021/03/26 06:21:34;;;;;;;5.37;2.30;;;7.60;99.90;;;;;;5002441;28;20184;-68
2021/03/26 06:24:36;;;;;;;3.07;2.40;;;7.40;99.90;;;;;;4990754;28;20662;-69
2021/03/26 06:27:37;;;;;;;6.00;2.40;;;7.20;99.90;;;;;;4999593;28;20291;-67
2021/03/26 06:30:38;;;;;;;4.20;2.10;;;6.90;99.90;;;;;;4993542;28;20232;-68
2021/03/26 06:34:00;;;;;;;4.53;2.30;;;6.90;99.90;;;;;;4995979;28;20399;-65
2021/03/26 06:37:14;;;;;;;2.93;2.33;;;7.10;99.90;;;;;;5002022;28;20208;-67
2021/03/26 06:40:02;;;;;;;6.30;2.47;;;7.20;99.90;;;;;;5015777;28;20196;-67
2021/03/26 06:42:37;;;;;;;2.87;2.27;;;7.40;99.90;;;;;;4998587;28;20210;-66
2021/03/26 06:45:48;;;;;;;4.23;2.00;;;7.50;99.90;;;;;;5002089;28;20428;-67
2021/03/26 06:48:17;;;;;;;6.27;2.47;;;7.60;99.90;;;;;;4997848;28;20297;-69
2021/03/26 06:51:20;;;;;;;3.53;2.03;;;7.80;99.90;;;;;;5003344;28;20205;-65
2021/03/26 06:54:22;;;;;;;7.83;2.30;;;7.80;99.90;;;;;;4999952;28;20187;-66
2021/03/26 06:57:22;;;;;;;4.93;2.40;;;7.70;99.90;;;;;;5013434;28;20752;-67
2021/03/26 07:00:07;;;;;;;3.63;2.50;;;7.90;99.90;;;;;;4999340;28;20264;-67
2021/03/26 07:02:58;;;;;;;10.97;2.83;;;8.10;99.90;;;;;;4997836;28;20834;-66
2021/03/26 07:06:05;;;;;;;3.70;2.50;;;8.20;99.90;;;;;;5002571;28;20387;-66
2021/03/26 07:08:53;;;;;;;9.87;2.53;;;8.20;99.90;;;;;;4974231;28;20609;-66
2021/03/26 07:11:26;;;;;;;8.93;2.40;;;8.30;99.90;;;;;;5002721;28;20469;-67
2021/03/26 07:14:28;;;;;;;5.67;2.13;;;8.30;99.90;;;;;;5002598;28;20191;-65
2021/03/26 07:17:20;;;;;;;4.93;2.40;;;8.40;99.90;;;;;;5000424;28;20589;-68
2021/03/26 07:20:35;;;;;;;6.83;2.00;;;8.30;99.90;;;;;;5002397;28;20422;-67
2021/03/26 07:23:46;;;;;;;5.60;2.07;;;8.30;99.90;;;;;;5002559;28;20690;-66
2021/03/26 07:26:44;;;;;;;3.30;1.70;;;8.40;99.90;;;;;;5006744;28;20650;-67
2021/03/26 07:29:45;;;;;;;5.60;2.00;;;8.80;99.90;;;;;;4992516;28;20193;-68
2021/03/26 07:32:30;;;;;;;5.50;1.67;;;8.90;99.90;;;;;;5005853;28;20275;-65
2021/03/26 07:35:38;;;;;;;4.33;1.40;;;9.00;99.90;;;;;;5003886;28;20275;-68
2021/03/26 07:38:32;;;;;;;9.27;1.60;;;9.30;99.90;;;;;;5002545;28;20224;-66
2021/03/26 07:41:48;;;;;;;6.07;1.57;;;9.20;99.90;;;;;;5005811;28;20181;-66
2021/03/26 07:44:39;;;;;;;7.07;1.70;;;9.20;99.90;;;;;;5002211;28;20181;-67
2021/03/26 07:47:53;;;;;;;3.23;1.60;;;9.40;99.90;;;;;;5004032;28;20193;-67
2021/03/26 07:50:28;;;;;;;10.23;1.67;;;9.30;99.90;;;;;;5001934;28;20222;-66
2021/03/26 07:53:18;;;;;;;5.83;1.50;;;9.60;99.90;;;;;;5003720;28;20188;-68
2021/03/26 07:56:14;;;;;;;3.17;1.50;;;9.90;99.90;;;;;;4997157;28;20207;-67
2021/03/26 07:59:34;;;;;;;8.43;2.10;;;9.90;99.90;;;;;;5004484;28;20254;-68
2021/03/26 08:02:34;;;;;;;5.23;1.43;;;10.00;99.90;;;;;;4983096;28;20325;-65
2021/03/26 08:05:25;;;;;;;3.20;1.63;;;10.10;99.90;;;;;;5016405;28;20193;-67
2021/03/26 08:08:13;;;;;;;2.60;1.53;;;10.10;99.90;;;;;;5004884;28;20185;-68
2021/03/26 08:11:52;;;;;;;3.37;1.53;;;10.10;99.90;;;;;;5004415;28;20584;-69
2021/03/26 08:14:28;;;;;;;6.50;1.80;;;10.40;99.90;;;;;;4980587;28;20702;-66
2021/03/26 08:17:29;;;;;;;8.53;1.93;;;10.10;99.90;;;;;;4979515;28;20244;-68
2021/03/26 08:20:16;;;;;;;3.23;1.70;;;10.00;99.90;;;;;;5000385;28;20226;-66
2021/03/26 08:22:49;;;;;;;9.43;1.57;;;9.70;99.90;;;;;;5004855;28;20701;-66
2021/03/26 08:25:47;;;;;;;4.03;1.40;;;9.80;99.90;;;;;;5001809;28;20175;-68
2021/03/26 08:29:16;;;;;;;3.13;1.40;;;9.80;99.90;;;;;;4998949;28;20193;-69
2021/03/26 08:32:09;;;;;;;4.53;1.90;;;10.00;99.90;;;;;;4986837;28;20181;-67
2021/03/26 08:35:12;;;;;;;7.10;1.70;;;9.90;99.90;;;;;;4976545;28;20189;-67
2021/03/26 08:38:22;;;;;;;3.20;1.53;;;10.00;99.90;;;;;;5000543;28;20205;-68
2021/03/26 08:41:01;;;;;;;6.37;1.73;;;10.30;99.90;;;;;;5001533;28;20266;-66
2021/03/26 08:43:35;;;;;;;4.83;2.27;;;10.30;99.90;;;;;;5001229;28;20223;-68
2021/03/26 08:46:16;;;;;;;5.20;1.60;;;10.20;99.90;;;;;;5001853;28;20692;-66
2021/03/26 08:49:01;;;;;;;6.53;2.07;;;10.00;99.90;;;;;;5001863;28;20200;-66
2021/03/26 08:51:52;;;;;;;7.37;2.00;;;10.10;99.90;;;;;;5002248;28;20793;-65
2021/03/26 08:54:56;;;;;;;6.33;2.03;;;10.00;99.90;;;;;;4997688;28;20189;-66
2021/03/26 08:58:10;;;;;;;2.63;1.40;;;9.80;99.90;;;;;;4997449;28;20208;-65
2021/03/26 09:01:13;;;;;;;5.20;1.80;;;9.70;99.90;;;;;;4965009;28;20203;-67
2021/03/26 09:03:59;;;;;;;3.43;1.60;;;9.90;99.90;;;;;;5018143;28;20188;-69
2021/03/26 09:07:10;;;;;;;6.50;1.67;;;9.90;99.90;;;;;;5002917;28;20191;-70
2021/03/26 09:09:55;;;;;;;4.33;1.90;;;10.10;99.90;;;;;;5001437;28;20288;-66
2021/03/26 09:12:34;;;;;;;3.70;1.50;;;10.00;99.90;;;;;;5006943;28;20208;-69
2021/03/26 09:15:33;;;;;;;5.20;1.80;;;9.90;99.90;;;;;;4996640;28;20755;-67
2021/03/26 09:18:42;;;;;;;3.23;1.70;;;10.10;99.90;;;;;;5002298;28;20248;-67
2021/03/26 09:21:39;;;;;;;7.67;1.70;;;10.20;99.90;;;;;;5000768;28;20215;-69
2021/03/26 09:24:40;;;;;;;4.00;1.70;;;9.90;99.90;;;;;;4985712;28;20192;-67
2021/03/26 09:27:28;;;;;;;7.13;1.63;;;10.00;99.90;;;;;;5013936;28;20549;-67
2021/03/26 09:30:34;;;;;;;2.73;1.40;;;10.10;99.90;;;;;;4998626;28;20751;-66
2021/03/26 09:33:08;;;;;;;3.63;1.53;;;10.20;99.90;;;;;;5002158;28;20612;-66
2021/03/26 09:35:37;;;;;;;5.30;1.50;;;10.10;99.90;;;;;;5001503;28;20189;-68
2021/03/26 09:38:07;;;;;;;4.03;1.70;;;9.90;99.90;;;;;;5001565;28;20240;-66
2021/03/26 09:40:52;;;;;;;4.07;1.60;;;9.90;99.90;;;;;;5014651;28;20190;-68
2021/03/26 09:44:05;;;;;;;8.30;1.60;;;10.10;99.90;;;;;;5003384;28;20199;-68
2021/03/26 09:46:53;;;;;;;3.93;1.40;;;10.70;99.90;;;;;;5001091;28;20192;-68
2021/03/26 09:49:42;;;;;;;3.17;1.50;;;10.50;99.90;;;;;;5002576;28;20645;-67
2021/03/26 09:52:32;;;;;;;8.37;1.70;;;10.30;99.90;;;;;;4998925;28;20191;-67
2021/03/26 09:55:32;;;;;;;3.10;1.43;;;10.10;99.90;;;;;;4999718;28;20649;-67
2021/03/26 09:58:39;;;;;;;6.17;1.60;;;10.30;99.90;;;;;;4997479;28;20221;-67
2021/03/26 10:01:25;;;;;;;4.40;1.50;;;10.60;99.90;;;;;;5007413;28;20558;-66
2021/03/26 10:04:06;;;;;;;5.97;1.60;;;10.90;99.90;;;;;;4988052;28;20181;-67
2021/03/26 10:06:43;;;;;;;7.30;1.77;;;10.80;99.90;;;;;;5001149;28;20192;-67
2021/03/26 10:09:41;;;;;;;5.53;1.47;;;10.60;99.90;;;;;;5000489;28;20242;-67
2021/03/26 10:12:23;;;;;;;6.03;1.80;;;10.80;99.90;;;;;;4997138;28;20185;-67
2021/03/26 10:15:04;;;;;;;5.03;1.93;;;10.90;99.90;;;;;;4996694;28;20234;-67
2021/03/26 10:17:42;;;;;;;3.80;1.33;;;10.80;99.90;;;;;;4994476;28;20204;-67
2021/03/26 10:20:49;;;;;;;3.50;1.80;;;10.90;99.90;;;;;;4991160;28;20418;-68
2021/03/26 10:23:43;;;;;;;5.20;1.40;;;10.90;99.90;;;;;;5001893;28;20190;-67
2021/03/26 10:26:20;;;;;;;4.83;1.90;;;10.80;99.90;;;;;;4986189;28;20185;-65
2021/03/26 10:29:18;;;;;;;3.83;1.60;;;10.70;99.90;;;;;;4986511;28;20207;-69
2021/03/26 10:31:51;;;;;;;2.03;1.50;;;10.60;99.90;;;;;;5003301;28;20251;-68
2021/03/26 10:34:39;;;;;;;5.97;1.73;;;11.00;99.90;;;;;;5017630;28;20200;-66
2021/03/26 10:37:47;;;;;;;3.07;1.77;;;11.40;99.90;;;;;;4983944;28;20201;-70
2021/03/26 10:41:07;;;;;;;5.90;1.67;;;11.60;99.90;;;;;;5003015;28;20188;-67
2021/03/26 10:43:58;;;;;;;7.90;1.80;;;11.40;99.90;;;;;;5004248;28;20608;-67
2021/03/26 10:47:05;;;;;;;7.20;1.90;;;10.90;99.90;;;;;;5001819;28;20222;-65
2021/03/26 10:49:59;;;;;;;5.30;1.70;;;10.80;99.90;;;;;;4993811;28;20262;-69
2021/03/26 10:52:40;;;;;;;6.40;2.00;;;10.90;99.90;;;;;;5018223;28;20696;-68
2021/03/26 10:55:14;;;;;;;2.90;1.40;;;11.00;99.90;;;;;;4983719;28;20197;-67
2021/03/26 10:58:03;;;;;;;2.97;1.40;;;11.30;99.90;;;;;;5002022;28;20220;-66
2021/03/26 11:00:47;;;;;;;4.47;1.60;;;10.90;99.90;;;;;;5006182;28;20189;-67
2021/03/26 11:03:31;;;;;;;3.40;1.40;;;10.80;99.90;;;;;;5007595;28;20549;-65
2021/03/26 11:06:45;;;;;;;12.17;3.33;;;11.40;99.90;;;;;;5002907;28;20258;-66
2021/03/26 11:09:25;;;;;;;4.80;1.70;;;11.50;99.90;;;;;;4983278;28;20213;-66
2021/03/26 11:12:16;;;;;;;3.87;1.73;;;11.20;99.90;;;;;;4998785;28;20180;-68
2021/03/26 11:15:29;;;;;;;5.60;1.70;;;11.60;99.90;;;;;;4989197;28;20188;-66
2021/03/26 11:18:14;;;;;;;6.97;1.70;;;11.70;99.90;;;;;;5007173;28;20232;-68
2021/03/26 11:21:15;;;;;;;3.03;1.60;;;11.90;99.90;;;;;;4987307;28;20189;-65
2021/03/26 11:23:58;;;;;;;3.03;1.70;;;12.30;99.90;;;;;;5017554;28;20178;-67
2021/03/26 11:26:55;;;;;;;4.37;1.70;;;12.40;99.90;;;;;;4985813;28;20242;-69
2021/03/26 11:29:36;;;;;;;8.57;1.77;;;12.50;99.90;;;;;;4996029;28;20177;-66
2021/03/26 11:32:17;;;;;;;5.17;1.40;;;12.70;99.90;;;;;;5005412;28;20216;-68
2021/03/26 11:35:02;;;;;;;4.20;1.70;;;12.30;99.90;;;;;;4984582;28;20182;-67
2021/03/26 11:37:33;;;;;;;6.77;1.70;;;12.20;99.90;;;;;;4999694;28;20213;-68
2021/03/26 11:40:38;;;;;;;3.20;1.70;;;11.90;99.90;;;;;;5008645;28;20188;-67
2021/03/26 11:43:16;;;;;;;2.53;1.60;;;12.30;99.90;;;;;;4994311;28;20287;-66
2021/03/26 11:45:57;;;;;;;10.43;2.23;;;12.40;99.90;;;;;;5002034;28;20196;-67
2021/03/26 11:49:01;;;;;;;5.03;1.30;;;12.40;99.90;;;;;;4988309;28;20573;-66
2021/03/26 11:51:39;;;;;;;7.23;1.57;;;12.50;99.90;;;;;;5009432;28;20193;-67
2021/03/26 11:54:33;;;;;;;3.30;1.50;;;12.60;99.90;;;;;;4988626;28;20188;-67
2021/03/26 11:57:19;;;;;;;6.30;1.70;;;12.50;99.90;;;;;;5005444;28;20229;-66
2021/03/26 12:00:19;;;;;;;2.53;1.40;;;12.40;99.90;;;;;;4989390;28;20653;-69
2021/03/26 12:03:02;;;;;;;4.17;1.53;;;12.30;99.90;;;;;;4977674;28;20197;-68
2021/03/26 12:06:22;;;;;;;2.57;1.50;;;12.20;99.90;;;;;;5023086;28;20542;-69
2021/03/26 12:09:08;;;;;;;4.17;1.47;;;12.20;99.90;;;;;;4986782;28;20387;-69
2021/03/26 12:12:10;;;;;;;7.50;1.57;;;12.40;99.90;;;;;;4988604;28;20196;-68
2021/03/26 12:15:14;;;;;;;3.37;1.37;;;12.40;99.90;;;;;;5011459;28;20192;-68
2021/03/26 12:17:48;;;;;;;3.27;1.50;;;12.40;99.90;;;;;;4989484;28;20201;-66
2021/03/26 12:20:38;;;;;;;3.80;1.50;;;12.40;99.90;;;;;;5006644;28;20184;-67
2021/03/26 12:23:46;;;;;;;8.20;1.70;;;12.60;99.90;;;;;;5002458;28;21145;-68
2021/03/26 12:26:45;;;;;;;6.20;1.67;;;12.60;99.90;;;;;;4993690;28;20295;-66
2021/03/26 12:30:05;;;;;;;5.40;1.50;;;12.60;99.90;;;;;;5023775;28;20189;-67
2021/03/26 12:32:54;;;;;;;3.97;1.70;;;12.80;99.90;;;;;;4984120;28;20228;-66
2021/03/26 12:35:54;;;;;;;5.67;1.70;;;12.80;99.90;;;;;;4988557;28;20189;-68
2021/03/26 12:38:34;;;;;;;3.77;2.00;;;12.60;99.90;;;;;;5019074;28;20254;-67
2021/03/26 12:41:30;;;;;;;5.80;2.00;;;12.40;99.90;;;;;;4999750;28;20185;-69
2021/03/26 12:44:33;;;;;;;4.97;1.97;;;12.20;99.90;;;;;;5014300;28;20497;-70
2021/03/26 12:47:18;;;;;;;2.93;1.67;;;12.20;99.90;;;;;;4987416;28;20696;-66
2021/03/26 12:50:21;;;;;;;5.07;1.60;;;11.80;99.90;;;;;;4990033;28;20410;-67
2021/03/26 12:53:24;;;;;;;4.10;1.60;;;11.50;99.90;;;;;;5002760;28;20188;-68
2021/03/26 12:56:12;;;;;;;7.70;1.50;;;11.60;99.90;;;;;;5004910;28;20224;-67
2021/03/26 12:59:07;;;;;;;8.07;1.90;;;11.80;99.90;;;;;;5016862;28;20697;-67
2021/03/26 13:01:58;;;;;;;6.10;1.60;;;12.10;99.90;;;;;;4988830;28;20191;-67
2021/03/26 13:04:53;;;;;;;3.00;1.40;;;11.70;99.90;;;;;;4986692;28;20289;-67
2021/03/26 13:07:35;;;;;;;3.77;1.27;;;11.60;99.90;;;;;;4990373;28;20250;-67
2021/03/26 13:10:29;;;;;;;5.30;1.30;;;11.80;99.90;;;;;;5005581;28;20211;-69
2021/03/26 13:13:37;;;;;;;3.50;1.60;;;12.10;99.90;;;;;;4986981;28;20185;-68
2021/03/26 13:16:26;;;;;;;4.27;1.73;;;12.20;99.90;;;;;;4964691;28;20189;-67
2021/03/26 13:19:30;;;;;;;5.30;1.67;;;12.30;99.90;;;;;;4981051;28;20201;-68
2021/03/26 13:22:22;;;;;;;4.23;1.73;;;12.30;99.90;;;;;;4993467;28;20234;-68
2021/03/26 13:25:07;;;;;;;3.73;1.50;;;12.20;99.90;;;;;;5006738;28;20955;-67
2021/03/26 13:27:55;;;;;;;5.20;1.50;;;12.30;99.90;;;;;;5005232;28;20534;-68
2021/03/26 13:30:58;;;;;;;3.47;1.57;;;12.20;99.90;;;;;;5001089;28;20689;-66
2021/03/26 13:34:29;;;;;;;2.47;1.30;;;12.20;99.90;;;;;;4987736;28;20372;-67
2021/03/26 13:37:31;;;;;;;2.27;1.03;;;12.20;99.90;;;;;;4992083;28;20243;-66
2021/03/26 13:40:32;;;;;;;8.63;1.60;;;12.10;99.90;;;;;;5005978;28;20271;-67
2021/03/26 13:43:52;;;;;;;2.73;1.27;;;12.20;99.90;;;;;;5019626;28;20234;-67
2021/03/26 13:46:32;;;;;;;2.63;1.40;;;12.10;99.90;;;;;;4983210;28;20197;-66
2021/03/26 13:49:20;;;;;;;3.10;1.30;;;12.00;99.90;;;;;;5007350;28;20274;-67
2021/03/26 13:52:06;;;;;;;4.53;1.33;;;11.90;99.90;;;;;;4982374;28;20690;-68
2021/03/26 13:54:44;;;;;;;2.97;1.40;;;12.00;99.90;;;;;;5002180;28;20250;-68
2021/03/26 13:57:25;;;;;;;5.50;1.30;;;11.90;99.90;;;;;;5001601;28;20220;-68
2021/03/26 14:00:18;;;;;;;8.37;1.30;;;11.80;99.90;;;;;;4996688;28;20181;-67
2021/03/26 14:03:39;;;;;;;7.70;1.70;;;11.60;99.90;;;;;;4988055;28;20911;-70
2021/03/26 14:06:28;;;;;;;4.83;1.10;;;11.70;99.90;;;;;;4974357;28;20200;-68
2021/03/26 14:09:28;;;;;;;3.63;1.30;;;11.70;99.90;;;;;;5005344;28;20282;-67
2021/03/26 14:12:08;;;;;;;1.87;1.07;;;11.50;99.90;;;;;;4988111;28;20286;-67
2021/03/26 14:15:01;;;;;;;4.73;1.30;;;11.10;99.90;;;;;;5000025;28;20653;-67
2021/03/26 14:17:43;;;;;;;3.83;1.40;;;11.00;99.90;;;;;;5003378;28;20209;-68
2021/03/26 14:20:46;;;;;;;3.23;1.40;;;11.20;99.90;;;;;;5006190;28;20269;-65
2021/03/26 14:23:52;;;;;;;6.73;1.43;;;11.20;99.90;;;;;;4993107;28;20196;-68
2021/03/26 14:26:40;;;;;;;3.57;1.43;;;11.30;99.90;;;;;;4988328;28;20196;-67
2021/03/26 14:29:44;;;;;;;2.97;1.40;;;11.30;99.90;;;;;;4990391;28;20261;-65
2021/03/26 14:32:37;;;;;;;4.50;1.60;;;11.20;99.90;;;;;;5008643;28;20710;-66
2021/03/26 14:35:29;;;;;;;5.23;1.60;;;11.20;99.90;;;;;;4994850;28;20201;-67
2021/03/26 14:38:22;;;;;;;4.83;1.70;;;11.20;99.90;;;;;;5007334;28;20646;-68
2021/03/26 14:41:31;;;;;;;3.40;1.60;;;11.20;99.90;;;;;;4974071;28;20189;-66